createdAt,value
2022-10-25T00:02:06.001Z,100602.69
2022-10-25T00:04:35.228Z,100602.09
2022-10-25T00:07:04.304Z,100602.47
2022-10-25T00:09:31.121Z,100604.00
2022-10-25T00:11:57.997Z,100606.69
2022-10-25T00:14:27.376Z,100612.84
2022-10-25T00:16:58.823Z,100612.91
2022-10-25T00:19:26.018Z,100607.94
2022-10-25T00:21:52.884Z,100607.94
2022-10-25T00:24:21.822Z,100608.59
2022-10-25T00:26:48.597Z,100614.19
2022-10-25T00:29:20.067Z,100614.28
2022-10-25T00:31:49.468Z,100609.72
2022-10-25T00:34:16.283Z,100611.75
2022-10-25T00:36:43.103Z,100614.38
2022-10-25T00:39:12.525Z,100609.81
2022-10-25T00:41:39.330Z,100613.34
2022-10-25T00:44:36.938Z,100607.09
2022-10-25T00:47:32.541Z,100606.41
2022-10-25T00:50:17.298Z,100606.16
2022-10-25T00:52:47.724Z,100605.84
2022-10-25T00:55:17.839Z,100613.00
2022-10-25T00:58:06.144Z,100614.25
2022-10-25T01:00:36.072Z,100614.19
2022-10-25T01:03:04.094Z,100617.16
2022-10-25T01:05:34.781Z,100613.16
2022-10-25T01:08:04.708Z,100618.34
2022-10-25T01:10:32.383Z,100623.03
2022-10-25T01:13:04.416Z,100613.44
2022-10-25T01:16:10.174Z,100615.81
2022-10-25T01:19:09.312Z,100616.22
2022-10-25T01:22:16.220Z,100617.91
2022-10-25T01:25:08.977Z,100626.00
2022-10-25T01:28:14.966Z,100623.22
2022-10-25T01:30:52.765Z,100622.78
2022-10-25T01:33:34.875Z,100616.94
2022-10-25T01:36:18.524Z,100618.25
2022-10-25T01:39:09.333Z,100614.03
2022-10-25T01:41:49.775Z,100615.78
2022-10-25T01:44:29.073Z,100616.56
2022-10-25T01:47:06.985Z,100609.97
2022-10-25T01:49:47.445Z,100608.78
2022-10-25T01:52:19.702Z,100617.84
2022-10-25T01:54:46.517Z,100610.81
2022-10-25T01:57:28.359Z,100609.91
2022-10-25T02:00:15.973Z,100613.63
2022-10-25T02:03:06.536Z,100617.81
2022-10-25T02:05:53.146Z,100615.31
2022-10-25T02:08:37.007Z,100622.53
2022-10-25T02:11:31.896Z,100616.28
2022-10-25T02:14:34.499Z,100609.22
2022-10-25T02:17:10.324Z,100612.47
2022-10-25T02:19:46.056Z,100613.50
2022-10-25T02:22:15.809Z,100615.25
2022-10-25T02:24:47.358Z,100611.47
2022-10-25T02:27:14.902Z,100619.53
2022-10-25T02:29:42.953Z,100613.41
2022-10-25T02:32:11.989Z,100618.47
2022-10-25T02:34:43.947Z,100618.81
2022-10-25T02:37:14.309Z,100616.28
2022-10-25T02:39:41.279Z,100624.47
2022-10-25T02:42:12.587Z,100624.06
2022-10-25T02:44:41.859Z,100618.50
2022-10-25T02:47:11.976Z,100623.53
2022-10-25T02:49:41.508Z,100630.22
2022-10-25T02:52:08.411Z,100628.47
2022-10-25T02:54:37.554Z,100635.81
2022-10-25T02:57:06.644Z,100631.66
2022-10-25T02:59:38.173Z,100643.84
2022-10-25T03:02:10.701Z,100633.03
2022-10-25T03:04:37.552Z,100644.44
2022-10-25T03:07:04.436Z,100644.31
2022-10-25T03:09:31.280Z,100644.78
2022-10-25T03:11:58.295Z,100639.38
2022-10-25T03:14:25.652Z,100654.97
2022-10-25T03:16:52.582Z,100647.19
2022-10-25T03:19:24.254Z,100648.78
2022-10-25T03:21:53.560Z,100660.72
2022-10-25T03:24:20.371Z,100664.00
2022-10-25T03:26:47.279Z,100662.22
2022-10-25T03:29:16.711Z,100662.47
2022-10-25T03:31:46.658Z,100665.75
2022-10-25T03:34:13.493Z,100653.41
2022-10-25T03:36:40.313Z,100666.19
2022-10-25T03:39:09.810Z,100677.63
2022-10-25T03:41:36.667Z,100672.69
2022-10-25T03:44:03.809Z,100674.81
2022-10-25T03:46:33.819Z,100683.94
2022-10-25T03:49:00.866Z,100676.88
2022-10-25T03:51:32.774Z,100680.19
2022-10-25T03:54:02.686Z,100684.81
2022-10-25T03:56:32.615Z,100687.22
2022-10-25T03:58:59.528Z,100680.13
2022-10-25T04:01:26.396Z,100686.75
2022-10-25T04:03:57.957Z,100686.22
2022-10-25T04:06:25.051Z,100689.06
2022-10-25T04:08:51.916Z,100693.38
2022-10-25T04:11:18.789Z,100699.50
2022-10-25T04:13:45.644Z,100700.78
2022-10-25T04:16:19.125Z,100693.19
2022-10-25T04:18:46.338Z,100699.84
2022-10-25T04:21:13.192Z,100698.59
2022-10-25T04:23:42.241Z,100706.81
2022-10-25T04:26:09.064Z,100706.09
2022-10-25T04:28:35.977Z,100696.66
2022-10-25T04:31:03.628Z,100710.72
2022-10-25T04:33:31.767Z,100711.50
2022-10-25T04:35:59.203Z,100703.28
2022-10-25T04:38:26.183Z,100713.13
2022-10-25T04:40:57.675Z,100705.00
2022-10-25T04:43:28.482Z,100716.63
2022-10-25T04:46:01.405Z,100708.38
2022-10-25T04:48:28.624Z,100715.03
2022-10-25T04:50:59.063Z,100716.38
2022-10-25T04:53:28.520Z,100710.63
2022-10-25T04:56:00.654Z,100707.88
2022-10-25T04:58:31.274Z,100720.44
2022-10-25T05:01:11.378Z,100712.47
2022-10-25T05:03:38.690Z,100712.31
2022-10-25T05:06:13.349Z,100711.53
2022-10-25T05:08:42.516Z,100720.75
2022-10-25T05:11:12.991Z,100719.81
2022-10-25T05:13:43.775Z,100722.38
2022-10-25T05:16:22.692Z,100733.44
2022-10-25T05:18:55.262Z,100735.94
2022-10-25T05:21:28.749Z,100734.59
2022-10-25T05:24:01.410Z,100741.34
2022-10-25T05:26:30.252Z,100739.66
2022-10-25T05:28:59.831Z,100733.72
2022-10-25T05:31:29.563Z,100743.25
2022-10-25T05:33:59.714Z,100740.41
2022-10-25T05:36:32.817Z,100732.97
2022-10-25T05:39:03.431Z,100740.66
2022-10-25T05:41:33.192Z,100743.03
2022-10-25T05:44:06.033Z,100747.75
2022-10-25T05:46:35.235Z,100746.41
2022-10-25T05:49:02.280Z,100743.16
2022-10-25T05:51:36.497Z,100743.19
2022-10-25T05:54:17.460Z,100748.22
2022-10-25T05:56:44.621Z,100740.16
2022-10-25T05:59:14.502Z,100748.16
2022-10-25T06:01:48.716Z,100751.72
2022-10-25T06:04:20.606Z,100763.09
2022-10-25T06:06:52.243Z,100767.31
2022-10-25T06:09:19.182Z,100756.69
2022-10-25T06:11:46.050Z,100758.34
2022-10-25T06:14:12.977Z,100763.59
2022-10-25T06:16:40.131Z,100765.78
2022-10-25T06:19:12.253Z,100760.97
2022-10-25T06:21:41.193Z,100775.03
2022-10-25T06:24:09.600Z,100779.59
2022-10-25T06:26:36.436Z,100780.28
2022-10-25T06:29:07.347Z,100779.69
2022-10-25T06:31:34.181Z,100782.38
2022-10-25T06:34:02.318Z,100779.84
2022-10-25T06:36:31.391Z,100784.59
2022-10-25T06:39:03.581Z,100788.94
2022-10-25T06:41:36.906Z,100795.31
2022-10-25T06:44:06.481Z,100793.81
2022-10-25T06:49:26.180Z,100800.41
2022-10-25T06:51:53.236Z,100805.84
2022-10-25T06:54:22.107Z,100804.53
2022-10-25T06:56:50.086Z,100809.91
2022-10-25T06:59:20.464Z,100807.50
2022-10-25T07:01:48.143Z,100821.06
2022-10-25T07:04:19.654Z,100831.19
2022-10-25T07:06:51.539Z,100824.66
2022-10-25T07:09:21.234Z,100832.78
2022-10-25T07:11:50.606Z,100835.19
2022-10-25T07:14:17.476Z,100837.50
2022-10-25T07:16:48.912Z,100835.72
2022-10-25T07:19:15.779Z,100837.72
2022-10-25T07:21:42.828Z,100833.75
2022-10-25T07:24:11.171Z,100837.19
2022-10-25T07:26:38.042Z,100845.97
2022-10-25T07:29:09.888Z,100848.50
2022-10-25T07:31:43.155Z,100848.44
2022-10-25T07:34:17.763Z,100846.63
2022-10-25T07:36:45.016Z,100846.81
2022-10-25T07:39:11.882Z,100832.34
2022-10-25T07:41:41.707Z,100843.09
2022-10-25T07:44:12.967Z,100848.09
2022-10-25T07:46:43.147Z,100838.47
2022-10-25T07:49:09.952Z,100849.59
2022-10-25T07:51:36.746Z,100851.19
2022-10-25T07:54:08.492Z,100860.53
2022-10-25T07:56:35.309Z,100856.44
2022-10-25T07:59:04.692Z,100867.94
2022-10-25T08:01:31.605Z,100863.31
2022-10-25T08:03:58.493Z,100867.22
2022-10-25T08:06:27.866Z,100873.78
2022-10-25T08:08:54.764Z,100867.66
2022-10-25T08:11:21.683Z,100878.16
2022-10-25T08:13:50.476Z,100886.59
2022-10-25T08:16:18.234Z,100894.66
2022-10-25T08:18:45.075Z,100886.47
2022-10-25T08:21:14.300Z,100890.84
2022-10-25T08:23:43.377Z,100892.56
2022-10-25T08:26:12.413Z,100896.78
2022-10-25T08:28:41.361Z,100890.03
2022-10-25T08:31:08.526Z,100892.56
2022-10-25T08:33:37.815Z,100901.06
2022-10-25T08:36:04.823Z,100913.13
2022-10-25T08:38:31.732Z,100903.22
2022-10-25T08:41:22.273Z,100902.66
2022-10-25T08:44:10.430Z,100909.75
2022-10-25T08:46:54.502Z,100922.00
2022-10-25T08:49:38.195Z,100916.81
2022-10-25T08:52:36.146Z,100913.66
2022-10-25T08:55:12.127Z,100918.75
2022-10-25T08:57:47.069Z,100915.81
2022-10-25T09:00:24.202Z,100922.41
2022-10-25T09:03:02.210Z,100916.72
2022-10-25T09:05:49.134Z,100926.88
2022-10-25T09:08:21.879Z,100938.75
2022-10-25T09:11:19.406Z,100947.84
2022-10-25T09:14:08.087Z,100945.41
2022-10-25T09:16:51.951Z,100949.41
2022-10-25T09:19:39.293Z,100953.50
2022-10-25T09:22:26.894Z,100958.81
2022-10-25T09:25:04.350Z,100956.88
2022-10-25T09:27:49.707Z,100956.19
2022-10-25T09:30:19.385Z,100968.03
2022-10-25T09:33:01.294Z,100964.28
2022-10-25T09:35:48.880Z,100983.19
2022-10-25T09:38:47.651Z,100979.59
2022-10-25T09:41:37.064Z,100987.38
2022-10-25T09:44:17.755Z,100982.44
2022-10-25T09:47:36.382Z,100993.97
2022-10-25T09:50:19.394Z,100991.38
2022-10-25T09:55:40.910Z,100978.63
2022-10-25T09:58:31.972Z,100987.34
2022-10-25T10:01:13.758Z,100984.97
2022-10-25T10:03:41.325Z,100987.66
2022-10-25T10:06:19.981Z,100984.00
2022-10-25T10:08:57.612Z,100990.41
2022-10-25T10:11:27.767Z,100997.09
2022-10-25T10:14:07.504Z,100994.66
2022-10-25T10:16:50.394Z,100988.34
2022-10-25T10:19:18.737Z,100996.53
2022-10-25T10:21:50.895Z,100992.13
2022-10-25T10:24:23.799Z,100998.03
2022-10-25T10:27:06.388Z,101000.72
2022-10-25T10:29:57.789Z,101000.16
2022-10-25T10:35:27.570Z,101013.59
2022-10-25T10:38:28.532Z,101014.50
2022-10-25T10:41:30.969Z,101005.22
2022-10-25T10:44:17.512Z,101001.31
2022-10-25T10:46:46.351Z,101014.69
2022-10-25T10:49:14.635Z,101021.53
2022-10-25T10:51:45.315Z,101013.34
2022-10-25T10:54:19.563Z,101012.72
2022-10-25T10:57:01.729Z,101014.03
2022-10-25T10:59:51.539Z,101010.13
2022-10-25T11:02:39.479Z,101009.56
2022-10-25T11:05:30.572Z,101013.53
2022-10-25T11:08:09.259Z,101014.41
2022-10-25T11:10:42.128Z,101017.53
2022-10-25T11:13:28.157Z,101031.94
2022-10-25T11:16:13.000Z,101030.91
2022-10-25T11:19:18.912Z,101031.53
2022-10-25T11:22:35.459Z,101034.31
2022-10-25T11:25:19.696Z,101033.44
2022-10-25T11:28:32.016Z,101044.63
2022-10-25T11:31:13.763Z,101033.91
2022-10-25T11:34:32.903Z,101037.03
2022-10-25T11:37:34.840Z,101033.97
2022-10-25T11:40:15.254Z,101036.28
2022-10-25T11:43:17.731Z,101054.66
2022-10-25T11:45:46.869Z,101056.25
2022-10-25T11:48:28.815Z,101050.97
2022-10-25T11:51:42.988Z,101059.13
2022-10-25T11:54:42.101Z,101050.63
2022-10-25T11:57:32.553Z,101061.81
2022-10-25T12:00:13.536Z,101057.34
2022-10-25T12:03:04.809Z,101055.41
2022-10-25T12:06:12.178Z,101066.50
2022-10-25T12:08:58.116Z,101061.66
2022-10-25T12:11:31.178Z,101064.56
2022-10-25T12:14:04.031Z,101067.22
2022-10-25T12:16:32.269Z,101060.16
2022-10-25T12:19:28.773Z,101065.88
2022-10-25T12:22:03.151Z,101064.47
2022-10-25T12:24:40.710Z,101064.50
2022-10-25T12:27:11.937Z,101062.16
2022-10-25T12:29:51.264Z,101067.94
2022-10-25T12:32:25.468Z,101066.50
2022-10-25T12:34:57.300Z,101068.69
2022-10-25T12:37:31.068Z,101071.75
2022-10-25T12:39:58.005Z,101073.81
2022-10-25T12:42:49.167Z,101079.69
2022-10-25T12:45:43.442Z,101070.47
2022-10-25T12:48:39.832Z,101083.97
2022-10-25T12:51:09.281Z,101077.25
2022-10-25T12:54:04.771Z,101077.59
2022-10-25T12:57:18.721Z,101084.47
2022-10-25T13:00:13.392Z,101081.88
2022-10-25T13:03:41.267Z,101085.81
2022-10-25T13:06:38.949Z,101093.94
2022-10-25T13:09:15.575Z,101084.31
2022-10-25T13:12:03.508Z,101084.16
2022-10-25T13:14:35.446Z,101085.44
2022-10-25T13:17:20.199Z,101085.09
2022-10-25T13:19:55.349Z,101079.09
2022-10-25T13:22:39.850Z,101090.88
2022-10-25T13:25:12.245Z,101079.13
2022-10-25T13:28:00.788Z,101083.00
2022-10-25T13:30:32.032Z,101090.31
2022-10-25T13:33:27.697Z,101094.41
2022-10-25T13:35:54.586Z,101093.59
2022-10-25T13:38:23.832Z,101089.41
2022-10-25T13:41:08.293Z,101110.97
2022-10-25T13:43:36.751Z,101109.84
2022-10-25T13:46:03.639Z,101100.41
2022-10-25T13:48:34.057Z,101102.75
2022-10-25T13:51:12.010Z,101109.25
2022-10-25T13:53:43.508Z,101108.72
2022-10-25T13:56:20.038Z,101109.81
2022-10-25T13:58:55.451Z,101113.88
2022-10-25T14:01:23.398Z,101107.28
2022-10-25T14:04:05.934Z,101108.28
2022-10-25T14:06:41.709Z,101109.41
2022-10-25T14:09:39.912Z,101112.81
2022-10-25T14:12:20.171Z,101117.56
2022-10-25T14:14:59.056Z,101110.53
2022-10-25T14:17:44.805Z,101118.88
2022-10-25T14:20:32.488Z,101114.19
2022-10-25T14:23:06.112Z,101115.09
2022-10-25T14:25:42.150Z,101118.78
2022-10-25T14:28:22.764Z,101109.56
2022-10-25T14:30:57.523Z,101104.16
2022-10-25T14:33:33.816Z,101104.78
2022-10-25T14:36:07.372Z,101101.47
2022-10-25T14:39:01.922Z,101104.09
2022-10-25T14:41:33.339Z,101112.25
2022-10-25T14:44:02.111Z,101109.06
2022-10-25T14:46:34.687Z,101109.97
2022-10-25T14:49:04.123Z,101107.28
2022-10-25T14:51:41.515Z,101109.25
2022-10-25T14:54:25.972Z,101108.72
2022-10-25T14:57:06.342Z,101104.34
2022-10-25T14:59:46.654Z,101109.97
2022-10-25T15:02:27.379Z,101096.38
2022-10-25T15:05:00.539Z,101099.66
2022-10-25T15:07:55.880Z,101098.31
2022-10-25T15:10:43.693Z,101100.19
2022-10-25T15:13:42.197Z,101100.75
2022-10-25T15:16:36.725Z,101105.94
2022-10-25T15:19:04.829Z,101106.31
2022-10-25T15:21:42.269Z,101106.28
2022-10-25T15:24:13.718Z,101103.09
2022-10-25T15:27:00.807Z,101109.47
2022-10-25T15:29:43.111Z,101118.72
2022-10-25T15:32:12.816Z,101115.88
2022-10-25T15:34:47.492Z,101116.66
2022-10-25T15:37:16.904Z,101108.88
2022-10-25T15:39:45.849Z,101116.75
2022-10-25T15:42:15.619Z,101127.81
2022-10-25T15:44:42.907Z,101127.84
2022-10-25T15:47:33.192Z,101121.34
2022-10-25T15:50:03.432Z,101116.28
2022-10-25T15:52:36.118Z,101119.63
2022-10-25T15:55:05.709Z,101131.41
2022-10-25T15:57:32.473Z,101127.09
2022-10-25T15:59:59.261Z,101120.59
2022-10-25T16:02:28.274Z,101126.09
2022-10-25T16:04:55.206Z,101120.53
2022-10-25T16:07:22.392Z,101128.78
2022-10-25T16:09:49.247Z,101124.66
2022-10-25T16:12:21.677Z,101129.13
2022-10-25T16:14:52.006Z,101128.22
2022-10-25T16:17:23.329Z,101125.25
2022-10-25T16:19:52.609Z,101122.59
2022-10-25T16:22:21.915Z,101142.56
2022-10-25T16:24:50.949Z,101133.34
2022-10-25T16:27:18.177Z,101135.00
2022-10-25T16:29:46.979Z,101142.38
2022-10-25T16:32:18.488Z,101143.88
2022-10-25T16:34:46.099Z,101143.22
2022-10-25T16:37:12.921Z,101147.75
2022-10-25T16:39:39.819Z,101155.13
2022-10-25T16:42:37.502Z,101150.91
2022-10-25T16:45:20.887Z,101146.13
2022-10-25T16:47:50.396Z,101155.56
2022-10-25T16:50:23.632Z,101150.16
2022-10-25T16:52:56.731Z,101157.53
2022-10-25T16:55:23.892Z,101154.22
2022-10-25T16:57:55.331Z,101157.66
2022-10-25T17:00:22.414Z,101166.78
2022-10-25T17:02:54.272Z,101164.44
2022-10-25T17:05:25.352Z,101161.84
2022-10-25T17:07:52.430Z,101166.72
2022-10-25T17:10:20.809Z,101173.56
2022-10-25T17:13:05.786Z,101175.13
2022-10-25T17:15:32.965Z,101169.97
2022-10-25T17:17:59.939Z,101176.28
2022-10-25T17:20:27.135Z,101174.25
2022-10-25T17:22:54.584Z,101171.09
2022-10-25T17:25:21.444Z,101173.56
2022-10-25T17:27:52.923Z,101188.63
2022-10-25T17:30:20.747Z,101188.22
2022-10-25T17:32:47.627Z,101186.59
2022-10-25T17:35:17.094Z,101194.78
2022-10-25T17:37:44.442Z,101192.19
2022-10-25T17:40:13.731Z,101189.94
2022-10-25T17:42:42.840Z,101189.28
2022-10-25T17:45:10.326Z,101196.56
2022-10-25T17:47:42.592Z,101200.94
2022-10-25T17:50:11.227Z,101201.38
2022-10-25T17:52:42.182Z,101205.75
2022-10-25T17:55:11.214Z,101202.91
2022-10-25T17:57:38.048Z,101208.94
2022-10-25T18:00:06.116Z,101202.53
2022-10-25T18:02:33.080Z,101200.94
2022-10-25T18:05:21.188Z,101199.78
2022-10-25T18:07:49.190Z,101200.19
2022-10-25T18:10:18.917Z,101199.31
2022-10-25T18:12:48.216Z,101201.56
2022-10-25T18:15:15.740Z,101207.22
2022-10-25T18:17:43.096Z,101206.19
2022-10-25T18:20:10.377Z,101196.22
2022-10-25T18:22:39.663Z,101202.72
2022-10-25T18:25:07.772Z,101196.41
2022-10-25T18:27:34.871Z,101201.31
2022-10-25T18:30:02.384Z,101209.78
2022-10-25T18:32:33.702Z,101207.72
2022-10-25T18:35:03.336Z,101207.78
2022-10-25T18:37:35.265Z,101208.66
2022-10-25T18:40:04.783Z,101210.44
2022-10-25T18:42:35.061Z,101208.91
2022-10-25T18:45:05.496Z,101209.59
2022-10-25T18:47:34.511Z,101220.50
2022-10-25T18:50:01.559Z,101209.00
2022-10-25T18:52:30.721Z,101202.50
2022-10-25T18:54:57.654Z,101208.97
2022-10-25T18:57:29.068Z,101214.44
2022-10-25T18:59:58.931Z,101211.25
2022-10-25T19:02:25.884Z,101215.38
2022-10-25T19:04:53.002Z,101216.31
2022-10-25T19:07:19.897Z,101214.34
2022-10-25T19:09:46.737Z,101218.53
2022-10-25T19:12:13.618Z,101222.47
2022-10-25T19:14:42.715Z,101218.78
2022-10-25T19:17:09.582Z,101211.75
2022-10-25T19:19:38.952Z,101209.41
2022-10-25T19:22:07.906Z,101211.50
2022-10-25T19:24:35.594Z,101209.56
2022-10-25T19:27:04.688Z,101213.88
2022-10-25T19:29:33.600Z,101215.50
2022-10-25T19:32:02.611Z,101203.69
2022-10-25T19:34:29.408Z,101203.69
2022-10-25T19:37:07.841Z,101204.84
2022-10-25T19:39:38.638Z,101208.84
2022-10-25T19:42:08.541Z,101211.09
2022-10-25T19:44:35.401Z,101211.88
2022-10-25T19:47:02.327Z,101212.94
2022-10-25T19:49:31.881Z,101214.91
2022-10-25T19:52:01.007Z,101211.25
2022-10-25T19:54:32.677Z,101210.72
2022-10-25T19:57:06.731Z,101217.78
2022-10-25T19:59:35.360Z,101204.94
2022-10-25T20:02:05.024Z,101211.88
2022-10-25T20:04:31.989Z,101210.88
2022-10-25T20:06:58.846Z,101212.94
2022-10-25T20:09:31.862Z,101218.47
2022-10-25T20:12:01.175Z,101218.47
2022-10-25T20:14:30.748Z,101223.56
2022-10-25T20:16:57.573Z,101220.16
2022-10-25T20:19:24.503Z,101226.66
2022-10-25T20:21:55.873Z,101228.75
2022-10-25T20:24:22.713Z,101228.28
2022-10-25T20:26:49.909Z,101231.63
2022-10-25T20:29:23.324Z,101232.97
2022-10-25T20:31:51.440Z,101234.34
2022-10-25T20:34:19.943Z,101232.66
2022-10-25T20:36:48.360Z,101232.97
2022-10-25T20:39:15.494Z,101236.38
2022-10-25T20:41:42.395Z,101245.94
2022-10-25T20:44:14.817Z,101241.31
2022-10-25T20:46:41.783Z,101246.28
2022-10-25T20:49:08.622Z,101242.19
2022-10-25T20:51:38.020Z,101248.66
2022-10-25T20:54:09.506Z,101250.69
2022-10-25T20:56:39.672Z,101257.16
2022-10-25T20:59:09.839Z,101257.31
2022-10-25T21:01:39.496Z,101260.56
2022-10-25T21:04:06.398Z,101257.47
2022-10-25T21:06:36.234Z,101268.72
2022-10-25T21:09:03.222Z,101257.34
2022-10-25T21:11:32.618Z,101262.63
2022-10-25T21:14:04.286Z,101257.34
2022-10-25T21:16:35.740Z,101269.75
2022-10-25T21:19:04.085Z,101268.72
2022-10-25T21:21:30.883Z,101266.34
2022-10-25T21:23:57.883Z,101259.03
2022-10-25T21:26:26.885Z,101265.81
2022-10-25T21:28:55.964Z,101265.34
2022-10-25T21:31:22.822Z,101257.34
2022-10-25T21:33:51.372Z,101268.38
2022-10-25T21:36:20.562Z,101274.16
2022-10-25T21:38:47.676Z,101270.09
2022-10-25T21:41:26.704Z,101271.09
2022-10-25T21:43:57.398Z,101281.84
2022-10-25T21:46:26.419Z,101270.59
2022-10-25T21:48:55.918Z,101270.94
2022-10-25T21:51:26.035Z,101265.66
2022-10-25T21:53:56.106Z,101265.16
2022-10-25T21:56:30.671Z,101266.16
2022-10-25T21:59:01.988Z,101270.09
2022-10-25T22:01:30.818Z,101273.50
2022-10-25T22:03:58.174Z,101272.97
2022-10-25T22:06:30.436Z,101262.78
2022-10-25T22:09:02.476Z,101276.22
2022-10-25T22:11:34.526Z,101272.31
2022-10-25T22:14:05.207Z,101275.56
2022-10-25T22:16:33.609Z,101266.22
2022-10-25T22:19:10.547Z,101266.03
2022-10-25T22:21:39.211Z,101273.19
2022-10-25T22:24:08.421Z,101267.06
2022-10-25T22:26:36.760Z,101268.44
2022-10-25T22:29:04.743Z,101270.81
2022-10-25T22:31:32.552Z,101265.69
2022-10-25T22:34:05.664Z,101264.53
2022-10-25T22:36:36.531Z,101273.53
2022-10-25T22:39:06.678Z,101269.63
2022-10-25T22:41:36.233Z,101270.13
2022-10-25T22:44:03.342Z,101276.41
2022-10-25T22:46:33.739Z,101272.66
2022-10-25T22:49:06.570Z,101282.66
2022-10-25T22:51:33.674Z,101273.47
2022-10-25T22:54:05.316Z,101280.78
2022-10-25T22:56:32.234Z,101272.78
2022-10-25T22:59:02.452Z,101267.16
2022-10-25T23:01:32.971Z,101274.84
2022-10-25T23:04:04.091Z,101266.00
2022-10-25T23:06:39.662Z,101268.72
2022-10-25T23:09:10.223Z,101271.28
2022-10-25T23:11:39.405Z,101276.53
2022-10-25T23:14:07.429Z,101277.25
2022-10-25T23:16:34.475Z,101271.13
2022-10-25T23:19:02.400Z,101270.44
2022-10-25T23:21:33.291Z,101270.75
2022-10-25T23:24:00.705Z,101274.00
2022-10-25T23:26:36.495Z,101270.41
2022-10-25T23:29:03.847Z,101272.97
2022-10-25T23:31:33.306Z,101271.09
2022-10-25T23:34:03.152Z,101264.44
2022-10-25T23:36:37.556Z,101266.41
2022-10-25T23:39:08.196Z,101272.09
2022-10-25T23:41:35.105Z,101272.22
2022-10-25T23:44:02.057Z,101273.84
2022-10-25T23:46:31.316Z,101271.63
2022-10-25T23:49:00.753Z,101266.88
2022-10-25T23:51:30.582Z,101270.91
2022-10-25T23:54:00.373Z,101272.09
2022-10-25T23:56:27.248Z,101280.06
2022-10-25T23:58:58.590Z,101271.34
